sensor_id;sensor_type;location;lat;lon;timestamp;P1;durP1;ratioP1;P2;durP2;ratioP2
30181;SDS011;16990;49.056;9.240;2023-01-01T00:02:06;69.15;;;35.47;;
30181;SDS011;16990;49.056;9.240;2023-01-01T00:04:32;76.97;;;41.58;;
30181;SDS011;16990;49.056;9.240;2023-01-01T00:07:00;86.45;;;46.05;;
30181;SDS011;16990;49.056;9.240;2023-01-01T00:09:27;88.32;;;46.35;;
30181;SDS011;16990;49.056;9.240;2023-01-01T00:12:11;80.97;;;46.35;;
30181;SDS011;16990;49.056;9.240;2023-01-01T00:14:37;82.05;;;47.42;;
30181;SDS011;16990;49.056;9.240;2023-01-01T00:17:06;91.25;;;49.63;;
30181;SDS011;16990;49.056;9.240;2023-01-01T00:19:33;77.05;;;43.75;;
30181;SDS011;16990;49.056;9.240;2023-01-01T00:22:01;84.78;;;46.25;;
30181;SDS011;16990;49.056;9.240;2023-01-01T00:24:27;85.05;;;47.33;;
30181;SDS011;16990;49.056;9.240;2023-01-01T00:26:53;82.90;;;45.92;;
30181;SDS011;16990;49.056;9.240;2023-01-01T00:29:20;85.88;;;44.92;;
30181;SDS011;16990;49.056;9.240;2023-01-01T00:31:46;88.72;;;47.22;;
30181;SDS011;16990;49.056;9.240;2023-01-01T00:34:13;89.57;;;52.13;;
30181;SDS011;16990;49.056;9.240;2023-01-01T00:36:40;79.55;;;48.58;;
30181;SDS011;16990;49.056;9.240;2023-01-01T00:39:07;80.82;;;46.85;;
30181;SDS011;16990;49.056;9.240;2023-01-01T00:41:34;90.72;;;48.25;;
30181;SDS011;16990;49.056;9.240;2023-01-01T00:44:00;88.10;;;47.03;;
30181;SDS011;16990;49.056;9.240;2023-01-01T00:46:26;86.82;;;48.97;;
30181;SDS011;16990;49.056;9.240;2023-01-01T00:48:53;93.70;;;49.40;;
30181;SDS011;16990;49.056;9.240;2023-01-01T00:51:19;92.32;;;50.08;;
30181;SDS011;16990;49.056;9.240;2023-01-01T00:53:45;92.55;;;48.50;;
30181;SDS011;16990;49.056;9.240;2023-01-01T00:56:13;90.55;;;49.97;;
30181;SDS011;16990;49.056;9.240;2023-01-01T00:58:40;96.35;;;52.78;;
30181;SDS011;16990;49.056;9.240;2023-01-01T01:01:06;90.95;;;49.05;;
30181;SDS011;16990;49.056;9.240;2023-01-01T01:03:32;94.18;;;49.72;;
30181;SDS011;16990;49.056;9.240;2023-01-01T01:06:07;92.70;;;50.85;;
30181;SDS011;16990;49.056;9.240;2023-01-01T01:08:35;87.70;;;49.65;;
30181;SDS011;16990;49.056;9.240;2023-01-01T01:11:03;84.97;;;48.10;;
30181;SDS011;16990;49.056;9.240;2023-01-01T01:13:30;84.00;;;48.17;;
30181;SDS011;16990;49.056;9.240;2023-01-01T01:15:57;81.03;;;46.40;;
30181;SDS011;16990;49.056;9.240;2023-01-01T01:18:23;80.18;;;44.88;;
30181;SDS011;16990;49.056;9.240;2023-01-01T01:20:50;70.88;;;40.70;;
30181;SDS011;16990;49.056;9.240;2023-01-01T01:23:16;66.20;;;36.60;;
30181;SDS011;16990;49.056;9.240;2023-01-01T01:25:43;68.70;;;36.35;;
30181;SDS011;16990;49.056;9.240;2023-01-01T01:28:10;64.50;;;36.88;;
30181;SDS011;16990;49.056;9.240;2023-01-01T01:30:37;65.18;;;35.38;;
30181;SDS011;16990;49.056;9.240;2023-01-01T01:33:04;63.65;;;34.13;;
30181;SDS011;16990;49.056;9.240;2023-01-01T01:35:30;59.40;;;32.55;;
30181;SDS011;16990;49.056;9.240;2023-01-01T01:37:57;48.97;;;28.65;;
30181;SDS011;16990;49.056;9.240;2023-01-01T01:40:23;49.53;;;27.15;;
30181;SDS011;16990;49.056;9.240;2023-01-01T01:42:50;43.60;;;25.70;;
30181;SDS011;16990;49.056;9.240;2023-01-01T01:45:17;45.55;;;24.92;;
30181;SDS011;16990;49.056;9.240;2023-01-01T01:47:47;42.80;;;24.73;;
30181;SDS011;16990;49.056;9.240;2023-01-01T01:50:15;48.67;;;24.45;;
30181;SDS011;16990;49.056;9.240;2023-01-01T01:52:46;45.13;;;25.23;;
30181;SDS011;16990;49.056;9.240;2023-01-01T01:55:13;42.95;;;22.27;;
30181;SDS011;16990;49.056;9.240;2023-01-01T01:57:39;39.72;;;23.05;;
30181;SDS011;16990;49.056;9.240;2023-01-01T02:00:06;43.35;;;23.15;;
30181;SDS011;16990;49.056;9.240;2023-01-01T02:02:35;40.50;;;24.33;;
30181;SDS011;16990;49.056;9.240;2023-01-01T02:05:03;37.85;;;23.08;;
30181;SDS011;16990;49.056;9.240;2023-01-01T02:07:30;35.03;;;20.92;;
30181;SDS011;16990;49.056;9.240;2023-01-01T02:09:58;35.67;;;19.80;;
30181;SDS011;16990;49.056;9.240;2023-01-01T02:12:24;36.35;;;19.80;;
30181;SDS011;16990;49.056;9.240;2023-01-01T02:14:51;38.33;;;19.35;;
30181;SDS011;16990;49.056;9.240;2023-01-01T02:17:20;33.92;;;18.27;;
30181;SDS011;16990;49.056;9.240;2023-01-01T02:19:52;31.60;;;15.80;;
30181;SDS011;16990;49.056;9.240;2023-01-01T02:22:25;29.33;;;16.48;;
30181;SDS011;16990;49.056;9.240;2023-01-01T02:25:00;28.00;;;16.38;;
30181;SDS011;16990;49.056;9.240;2023-01-01T02:27:31;21.75;;;13.95;;
30181;SDS011;16990;49.056;9.240;2023-01-01T02:30:02;27.27;;;14.15;;
30181;SDS011;16990;49.056;9.240;2023-01-01T02:32:31;23.80;;;12.30;;
30181;SDS011;16990;49.056;9.240;2023-01-01T02:35:00;22.73;;;12.82;;
30181;SDS011;16990;49.056;9.240;2023-01-01T02:37:49;22.35;;;11.80;;
30181;SDS011;16990;49.056;9.240;2023-01-01T02:40:16;19.55;;;10.98;;
30181;SDS011;16990;49.056;9.240;2023-01-01T02:42:43;18.00;;;10.90;;
30181;SDS011;16990;49.056;9.240;2023-01-01T02:45:11;16.77;;;10.25;;
30181;SDS011;16990;49.056;9.240;2023-01-01T02:47:38;22.40;;;10.20;;
30181;SDS011;16990;49.056;9.240;2023-01-01T02:50:06;19.77;;;9.25;;
30181;SDS011;16990;49.056;9.240;2023-01-01T02:55:26;17.35;;;9.02;;
30181;SDS011;16990;49.056;9.240;2023-01-01T02:57:55;17.13;;;9.18;;
30181;SDS011;16990;49.056;9.240;2023-01-01T03:00:46;15.63;;;8.63;;
30181;SDS011;16990;49.056;9.240;2023-01-01T03:03:14;18.15;;;8.52;;
30181;SDS011;16990;49.056;9.240;2023-01-01T03:05:46;16.90;;;9.93;;
30181;SDS011;16990;49.056;9.240;2023-01-01T03:08:36;17.95;;;9.30;;
30181;SDS011;16990;49.056;9.240;2023-01-01T03:11:06;14.77;;;8.15;;
30181;SDS011;16990;49.056;9.240;2023-01-01T03:13:35;16.40;;;9.02;;
30181;SDS011;16990;49.056;9.240;2023-01-01T03:16:07;14.13;;;7.85;;
30181;SDS011;16990;49.056;9.240;2023-01-01T03:18:36;14.50;;;8.38;;
30181;SDS011;16990;49.056;9.240;2023-01-01T03:21:04;13.50;;;8.77;;
30181;SDS011;16990;49.056;9.240;2023-01-01T03:23:33;15.93;;;8.88;;
30181;SDS011;16990;49.056;9.240;2023-01-01T03:26:01;14.73;;;8.43;;
30181;SDS011;16990;49.056;9.240;2023-01-01T03:28:31;16.80;;;8.27;;
30181;SDS011;16990;49.056;9.240;2023-01-01T03:30:59;16.55;;;8.32;;
30181;SDS011;16990;49.056;9.240;2023-01-01T03:33:28;13.23;;;8.63;;
30181;SDS011;16990;49.056;9.240;2023-01-01T03:35:56;18.58;;;6.97;;
30181;SDS011;16990;49.056;9.240;2023-01-01T03:38:24;13.20;;;7.90;;
30181;SDS011;16990;49.056;9.240;2023-01-01T03:40:55;11.13;;;7.18;;
30181;SDS011;16990;49.056;9.240;2023-01-01T03:43:26;17.42;;;7.28;;
30181;SDS011;16990;49.056;9.240;2023-01-01T03:45:54;10.57;;;6.35;;
30181;SDS011;16990;49.056;9.240;2023-01-01T03:48:21;11.48;;;6.82;;
30181;SDS011;16990;49.056;9.240;2023-01-01T03:50:54;12.73;;;7.28;;
30181;SDS011;16990;49.056;9.240;2023-01-01T03:53:25;11.18;;;5.40;;
30181;SDS011;16990;49.056;9.240;2023-01-01T03:55:56;19.73;;;6.53;;
30181;SDS011;16990;49.056;9.240;2023-01-01T03:58:25;11.98;;;6.55;;
30181;SDS011;16990;49.056;9.240;2023-01-01T04:00:56;9.63;;;6.32;;
30181;SDS011;16990;49.056;9.240;2023-01-01T04:03:26;12.18;;;6.38;;
30181;SDS011;16990;49.056;9.240;2023-01-01T04:05:54;9.35;;;5.85;;
30181;SDS011;16990;49.056;9.240;2023-01-01T04:08:21;13.73;;;6.65;;
30181;SDS011;16990;49.056;9.240;2023-01-01T04:10:47;20.83;;;6.22;;
30181;SDS011;16990;49.056;9.240;2023-01-01T04:13:16;11.95;;;6.72;;
30181;SDS011;16990;49.056;9.240;2023-01-01T04:15:42;10.15;;;5.95;;
30181;SDS011;16990;49.056;9.240;2023-01-01T04:18:08;10.75;;;6.03;;
30181;SDS011;16990;49.056;9.240;2023-01-01T04:20:35;8.70;;;5.93;;
30181;SDS011;16990;49.056;9.240;2023-01-01T04:23:02;8.65;;;5.15;;
30181;SDS011;16990;49.056;9.240;2023-01-01T04:25:29;10.50;;;5.65;;
30181;SDS011;16990;49.056;9.240;2023-01-01T04:27:55;9.93;;;5.70;;
30181;SDS011;16990;49.056;9.240;2023-01-01T04:30:22;10.13;;;5.32;;
30181;SDS011;16990;49.056;9.240;2023-01-01T04:32:48;10.52;;;5.03;;
30181;SDS011;16990;49.056;9.240;2023-01-01T04:35:15;11.73;;;5.60;;
30181;SDS011;16990;49.056;9.240;2023-01-01T04:37:42;7.57;;;4.63;;
30181;SDS011;16990;49.056;9.240;2023-01-01T04:40:11;11.40;;;4.80;;
30181;SDS011;16990;49.056;9.240;2023-01-01T04:42:38;8.75;;;4.40;;
30181;SDS011;16990;49.056;9.240;2023-01-01T04:45:05;11.00;;;4.43;;
30181;SDS011;16990;49.056;9.240;2023-01-01T04:47:31;9.85;;;4.57;;
30181;SDS011;16990;49.056;9.240;2023-01-01T04:49:58;8.88;;;4.43;;
30181;SDS011;16990;49.056;9.240;2023-01-01T04:52:24;7.95;;;3.53;;
30181;SDS011;16990;49.056;9.240;2023-01-01T04:54:50;9.18;;;3.63;;
30181;SDS011;16990;49.056;9.240;2023-01-01T04:57:18;6.38;;;3.67;;
30181;SDS011;16990;49.056;9.240;2023-01-01T04:59:45;6.28;;;3.58;;
30181;SDS011;16990;49.056;9.240;2023-01-01T05:02:11;10.55;;;4.20;;
30181;SDS011;16990;49.056;9.240;2023-01-01T05:04:37;12.25;;;3.78;;
30181;SDS011;16990;49.056;9.240;2023-01-01T05:07:04;8.27;;;4.13;;
30181;SDS011;16990;49.056;9.240;2023-01-01T05:09:30;9.30;;;4.13;;
30181;SDS011;16990;49.056;9.240;2023-01-01T05:11:56;6.68;;;3.88;;
30181;SDS011;16990;49.056;9.240;2023-01-01T05:14:24;9.93;;;3.97;;
30181;SDS011;16990;49.056;9.240;2023-01-01T05:16:51;5.80;;;3.33;;
30181;SDS011;16990;49.056;9.240;2023-01-01T05:19:17;7.00;;;4.05;;
30181;SDS011;16990;49.056;9.240;2023-01-01T05:21:44;6.53;;;4.15;;
30181;SDS011;16990;49.056;9.240;2023-01-01T05:24:10;8.43;;;4.32;;
30181;SDS011;16990;49.056;9.240;2023-01-01T05:26:38;8.95;;;4.65;;
30181;SDS011;16990;49.056;9.240;2023-01-01T05:29:05;11.23;;;3.95;;
30181;SDS011;16990;49.056;9.240;2023-01-01T05:31:33;7.32;;;3.58;;
30181;SDS011;16990;49.056;9.240;2023-01-01T05:34:00;6.40;;;3.97;;
30181;SDS011;16990;49.056;9.240;2023-01-01T05:36:28;9.00;;;4.07;;
30181;SDS011;16990;49.056;9.240;2023-01-01T05:38:54;5.45;;;3.17;;
30181;SDS011;16990;49.056;9.240;2023-01-01T05:41:21;6.18;;;3.17;;
30181;SDS011;16990;49.056;9.240;2023-01-01T05:43:48;11.80;;;3.50;;
30181;SDS011;16990;49.056;9.240;2023-01-01T05:46:15;6.85;;;3.38;;
30181;SDS011;16990;49.056;9.240;2023-01-01T05:48:43;8.80;;;3.40;;
30181;SDS011;16990;49.056;9.240;2023-01-01T05:51:10;6.07;;;3.38;;
30181;SDS011;16990;49.056;9.240;2023-01-01T05:53:37;6.85;;;3.30;;
30181;SDS011;16990;49.056;9.240;2023-01-01T05:56:04;6.13;;;3.10;;
30181;SDS011;16990;49.056;9.240;2023-01-01T05:58:31;9.60;;;2.78;;
30181;SDS011;16990;49.056;9.240;2023-01-01T06:01:04;6.97;;;2.90;;
30181;SDS011;16990;49.056;9.240;2023-01-01T06:03:30;7.68;;;2.60;;
30181;SDS011;16990;49.056;9.240;2023-01-01T06:06:01;5.47;;;2.90;;
30181;SDS011;16990;49.056;9.240;2023-01-01T06:08:27;6.70;;;2.80;;
30181;SDS011;16990;49.056;9.240;2023-01-01T06:10:56;8.30;;;3.00;;
30181;SDS011;16990;49.056;9.240;2023-01-01T06:13:22;4.47;;;2.63;;
30181;SDS011;16990;49.056;9.240;2023-01-01T06:15:51;4.13;;;1.98;;
30181;SDS011;16990;49.056;9.240;2023-01-01T06:18:18;5.43;;;2.35;;
30181;SDS011;16990;49.056;9.240;2023-01-01T06:20:44;5.80;;;2.47;;
30181;SDS011;16990;49.056;9.240;2023-01-01T06:23:12;8.38;;;2.80;;
30181;SDS011;16990;49.056;9.240;2023-01-01T06:25:38;9.45;;;2.50;;
30181;SDS011;16990;49.056;9.240;2023-01-01T06:28:05;9.00;;;2.63;;
30181;SDS011;16990;49.056;9.240;2023-01-01T06:30:31;6.28;;;2.30;;
30181;SDS011;16990;49.056;9.240;2023-01-01T06:32:58;5.28;;;2.50;;
30181;SDS011;16990;49.056;9.240;2023-01-01T06:35:24;5.03;;;2.60;;
30181;SDS011;16990;49.056;9.240;2023-01-01T06:37:51;2.60;;;1.90;;
30181;SDS011;16990;49.056;9.240;2023-01-01T06:40:19;2.60;;;1.75;;
30181;SDS011;16990;49.056;9.240;2023-01-01T06:42:45;3.70;;;2.45;;
30181;SDS011;16990;49.056;9.240;2023-01-01T06:45:11;3.35;;;2.17;;
30181;SDS011;16990;49.056;9.240;2023-01-01T06:47:38;5.75;;;2.38;;
30181;SDS011;16990;49.056;9.240;2023-01-01T06:50:05;6.38;;;2.35;;
30181;SDS011;16990;49.056;9.240;2023-01-01T06:52:31;4.70;;;2.33;;
30181;SDS011;16990;49.056;9.240;2023-01-01T06:54:57;3.50;;;2.35;;
30181;SDS011;16990;49.056;9.240;2023-01-01T06:57:25;8.63;;;2.40;;
30181;SDS011;16990;49.056;9.240;2023-01-01T06:59:51;6.45;;;2.80;;
30181;SDS011;16990;49.056;9.240;2023-01-01T07:02:18;7.00;;;2.50;;
30181;SDS011;16990;49.056;9.240;2023-01-01T07:04:44;4.38;;;2.63;;
30181;SDS011;16990;49.056;9.240;2023-01-01T07:07:10;7.78;;;2.97;;
30181;SDS011;16990;49.056;9.240;2023-01-01T07:09:37;6.03;;;2.20;;
30181;SDS011;16990;49.056;9.240;2023-01-01T07:12:03;9.48;;;2.70;;
30181;SDS011;16990;49.056;9.240;2023-01-01T07:14:31;5.50;;;2.83;;
30181;SDS011;16990;49.056;9.240;2023-01-01T07:16:57;6.25;;;2.65;;
30181;SDS011;16990;49.056;9.240;2023-01-01T07:19:24;5.57;;;2.47;;
30181;SDS011;16990;49.056;9.240;2023-01-01T07:21:51;6.63;;;2.88;;
30181;SDS011;16990;49.056;9.240;2023-01-01T07:24:17;7.18;;;2.80;;
30181;SDS011;16990;49.056;9.240;2023-01-01T07:26:44;5.85;;;2.85;;
30181;SDS011;16990;49.056;9.240;2023-01-01T07:29:11;8.38;;;3.40;;
30181;SDS011;16990;49.056;9.240;2023-01-01T07:31:39;7.80;;;2.90;;
30181;SDS011;16990;49.056;9.240;2023-01-01T07:34:06;5.63;;;2.75;;
30181;SDS011;16990;49.056;9.240;2023-01-01T07:36:34;5.53;;;3.20;;
30181;SDS011;16990;49.056;9.240;2023-01-01T07:39:01;9.88;;;2.80;;
30181;SDS011;16990;49.056;9.240;2023-01-01T07:41:27;5.30;;;3.00;;
30181;SDS011;16990;49.056;9.240;2023-01-01T07:43:53;7.07;;;3.08;;
30181;SDS011;16990;49.056;9.240;2023-01-01T07:46:20;8.32;;;3.55;;
30181;SDS011;16990;49.056;9.240;2023-01-01T07:48:48;7.40;;;4.30;;
30181;SDS011;16990;49.056;9.240;2023-01-01T07:51:14;8.57;;;2.88;;
30181;SDS011;16990;49.056;9.240;2023-01-01T07:53:41;12.55;;;3.45;;
30181;SDS011;16990;49.056;9.240;2023-01-01T07:56:07;8.95;;;3.10;;
30181;SDS011;16990;49.056;9.240;2023-01-01T07:58:33;6.38;;;3.15;;
30181;SDS011;16990;49.056;9.240;2023-01-01T08:01:00;6.63;;;2.95;;
30181;SDS011;16990;49.056;9.240;2023-01-01T08:03:26;5.80;;;3.20;;
30181;SDS011;16990;49.056;9.240;2023-01-01T08:05:54;5.03;;;3.47;;
30181;SDS011;16990;49.056;9.240;2023-01-01T08:08:20;5.65;;;3.42;;
30181;SDS011;16990;49.056;9.240;2023-01-01T08:10:47;6.93;;;3.40;;
30181;SDS011;16990;49.056;9.240;2023-01-01T08:13:13;7.10;;;2.97;;
30181;SDS011;16990;49.056;9.240;2023-01-01T08:15:39;6.68;;;3.35;;
30181;SDS011;16990;49.056;9.240;2023-01-01T08:18:06;7.53;;;3.97;;
30181;SDS011;16990;49.056;9.240;2023-01-01T08:20:32;5.05;;;2.80;;
30181;SDS011;16990;49.056;9.240;2023-01-01T08:23:00;4.88;;;2.92;;
30181;SDS011;16990;49.056;9.240;2023-01-01T08:25:27;5.63;;;3.10;;
30181;SDS011;16990;49.056;9.240;2023-01-01T08:27:53;8.52;;;3.03;;
30181;SDS011;16990;49.056;9.240;2023-01-01T08:30:20;6.03;;;3.25;;
30181;SDS011;16990;49.056;9.240;2023-01-01T08:32:46;5.50;;;2.80;;
30181;SDS011;16990;49.056;9.240;2023-01-01T08:35:12;7.68;;;3.40;;
30181;SDS011;16990;49.056;9.240;2023-01-01T08:37:39;6.75;;;2.25;;
30181;SDS011;16990;49.056;9.240;2023-01-01T08:40:08;4.05;;;2.60;;
30181;SDS011;16990;49.056;9.240;2023-01-01T08:42:36;4.95;;;2.80;;
30181;SDS011;16990;49.056;9.240;2023-01-01T08:45:02;7.85;;;2.75;;
30181;SDS011;16990;49.056;9.240;2023-01-01T08:47:29;5.57;;;2.75;;
30181;SDS011;16990;49.056;9.240;2023-01-01T08:49:56;4.15;;;2.15;;
30181;SDS011;16990;49.056;9.240;2023-01-01T08:52:23;10.57;;;2.63;;
30181;SDS011;16990;49.056;9.240;2023-01-01T08:54:49;5.45;;;2.28;;
30181;SDS011;16990;49.056;9.240;2023-01-01T08:57:17;6.63;;;2.30;;
30181;SDS011;16990;49.056;9.240;2023-01-01T08:59:43;9.55;;;2.75;;
30181;SDS011;16990;49.056;9.240;2023-01-01T09:02:10;9.05;;;2.65;;
30181;SDS011;16990;49.056;9.240;2023-01-01T09:04:37;8.48;;;2.47;;
30181;SDS011;16990;49.056;9.240;2023-01-01T09:07:03;8.30;;;3.00;;
30181;SDS011;16990;49.056;9.240;2023-01-01T09:09:29;9.27;;;2.75;;
30181;SDS011;16990;49.056;9.240;2023-01-01T09:11:56;13.75;;;2.60;;
30181;SDS011;16990;49.056;9.240;2023-01-01T09:14:29;12.30;;;4.50;;
30181;SDS011;16990;49.056;9.240;2023-01-01T09:16:55;6.07;;;3.08;;
30181;SDS011;16990;49.056;9.240;2023-01-01T09:19:22;9.32;;;2.88;;
30181;SDS011;16990;49.056;9.240;2023-01-01T09:21:48;5.90;;;2.85;;
30181;SDS011;16990;49.056;9.240;2023-01-01T09:24:15;4.32;;;2.72;;
30181;SDS011;16990;49.056;9.240;2023-01-01T09:26:41;9.13;;;3.00;;
30181;SDS011;16990;49.056;9.240;2023-01-01T09:29:07;7.93;;;2.85;;
30181;SDS011;16990;49.056;9.240;2023-01-01T09:31:35;9.05;;;3.08;;
30181;SDS011;16990;49.056;9.240;2023-01-01T09:34:01;4.97;;;2.60;;
30181;SDS011;16990;49.056;9.240;2023-01-01T09:36:28;7.07;;;3.60;;
30181;SDS011;16990;49.056;9.240;2023-01-01T09:38:55;9.27;;;4.28;;
30181;SDS011;16990;49.056;9.240;2023-01-01T09:41:24;11.27;;;3.70;;
30181;SDS011;16990;49.056;9.240;2023-01-01T09:43:54;7.65;;;3.95;;
30181;SDS011;16990;49.056;9.240;2023-01-01T09:46:24;7.57;;;4.13;;
30181;SDS011;16990;49.056;9.240;2023-01-01T09:48:52;11.10;;;4.18;;
30181;SDS011;16990;49.056;9.240;2023-01-01T09:51:20;11.25;;;3.65;;
30181;SDS011;16990;49.056;9.240;2023-01-01T09:53:48;9.32;;;4.35;;
30181;SDS011;16990;49.056;9.240;2023-01-01T09:56:16;6.95;;;3.83;;
30181;SDS011;16990;49.056;9.240;2023-01-01T09:58:44;6.72;;;3.25;;
30181;SDS011;16990;49.056;9.240;2023-01-01T10:01:11;8.75;;;3.75;;
30181;SDS011;16990;49.056;9.240;2023-01-01T10:03:44;7.45;;;3.33;;
30181;SDS011;16990;49.056;9.240;2023-01-01T10:06:21;6.32;;;3.30;;
30181;SDS011;16990;49.056;9.240;2023-01-01T10:08:53;9.45;;;4.05;;
30181;SDS011;16990;49.056;9.240;2023-01-01T10:11:23;12.80;;;3.33;;
30181;SDS011;16990;49.056;9.240;2023-01-01T10:13:50;7.22;;;3.67;;
30181;SDS011;16990;49.056;9.240;2023-01-01T10:16:22;6.88;;;3.50;;
30181;SDS011;16990;49.056;9.240;2023-01-01T10:18:51;8.75;;;3.10;;
30181;SDS011;16990;49.056;9.240;2023-01-01T10:21:20;6.43;;;3.65;;
30181;SDS011;16990;49.056;9.240;2023-01-01T10:23:49;8.05;;;3.35;;
30181;SDS011;16990;49.056;9.240;2023-01-01T10:26:18;12.10;;;3.95;;
30181;SDS011;16990;49.056;9.240;2023-01-01T10:28:50;8.25;;;3.72;;
30181;SDS011;16990;49.056;9.240;2023-01-01T10:31:19;6.75;;;2.90;;
30181;SDS011;16990;49.056;9.240;2023-01-01T10:33:47;8.35;;;3.50;;
30181;SDS011;16990;49.056;9.240;2023-01-01T10:36:14;9.40;;;3.75;;
30181;SDS011;16990;49.056;9.240;2023-01-01T10:38:43;7.65;;;3.10;;
30181;SDS011;16990;49.056;9.240;2023-01-01T10:41:10;10.15;;;3.70;;
30181;SDS011;16990;49.056;9.240;2023-01-01T10:43:37;7.57;;;3.70;;
30181;SDS011;16990;49.056;9.240;2023-01-01T10:46:03;8.38;;;3.38;;
30181;SDS011;16990;49.056;9.240;2023-01-01T10:48:30;7.25;;;3.10;;
30181;SDS011;16990;49.056;9.240;2023-01-01T10:50:57;8.43;;;3.80;;
30181;SDS011;16990;49.056;9.240;2023-01-01T10:53:26;9.00;;;3.55;;
30181;SDS011;16990;49.056;9.240;2023-01-01T10:56:01;11.93;;;3.97;;
30181;SDS011;16990;49.056;9.240;2023-01-01T10:58:36;10.48;;;3.63;;
30181;SDS011;16990;49.056;9.240;2023-01-01T11:01:03;8.73;;;3.33;;
30181;SDS011;16990;49.056;9.240;2023-01-01T11:03:31;8.27;;;3.30;;
30181;SDS011;16990;49.056;9.240;2023-01-01T11:08:46;8.63;;;4.03;;
30181;SDS011;16990;49.056;9.240;2023-01-01T11:11:19;6.70;;;3.40;;
30181;SDS011;16990;49.056;9.240;2023-01-01T11:13:46;8.20;;;3.13;;
30181;SDS011;16990;49.056;9.240;2023-01-01T11:16:13;7.03;;;3.40;;
30181;SDS011;16990;49.056;9.240;2023-01-01T11:18:40;7.53;;;4.00;;
30181;SDS011;16990;49.056;9.240;2023-01-01T11:21:06;7.22;;;3.20;;
30181;SDS011;16990;49.056;9.240;2023-01-01T11:23:33;9.57;;;4.28;;
30181;SDS011;16990;49.056;9.240;2023-01-01T11:26:01;5.47;;;3.47;;
30181;SDS011;16990;49.056;9.240;2023-01-01T11:28:29;9.70;;;3.65;;
30181;SDS011;16990;49.056;9.240;2023-01-01T11:31:02;6.22;;;3.22;;
30181;SDS011;16990;49.056;9.240;2023-01-01T11:33:30;6.18;;;3.55;;
30181;SDS011;16990;49.056;9.240;2023-01-01T11:35:57;8.95;;;3.55;;
30181;SDS011;16990;49.056;9.240;2023-01-01T11:38:23;8.98;;;3.97;;
30181;SDS011;16990;49.056;9.240;2023-01-01T11:40:51;8.27;;;3.38;;
30181;SDS011;16990;49.056;9.240;2023-01-01T11:43:20;11.13;;;3.08;;
30181;SDS011;16990;49.056;9.240;2023-01-01T11:45:48;5.38;;;3.05;;
30181;SDS011;16990;49.056;9.240;2023-01-01T11:48:16;7.03;;;3.70;;
30181;SDS011;16990;49.056;9.240;2023-01-01T11:50:47;8.93;;;3.80;;
30181;SDS011;16990;49.056;9.240;2023-01-01T11:53:19;6.25;;;3.10;;
30181;SDS011;16990;49.056;9.240;2023-01-01T11:55:51;8.75;;;2.92;;
30181;SDS011;16990;49.056;9.240;2023-01-01T11:58:20;7.47;;;3.60;;
30181;SDS011;16990;49.056;9.240;2023-01-01T12:00:51;7.13;;;3.80;;
30181;SDS011;16990;49.056;9.240;2023-01-01T12:03:21;8.27;;;3.58;;
30181;SDS011;16990;49.056;9.240;2023-01-01T12:05:50;14.80;;;3.70;;
30181;SDS011;16990;49.056;9.240;2023-01-01T12:08:22;10.95;;;3.25;;
30181;SDS011;16990;49.056;9.240;2023-01-01T12:10:51;9.80;;;3.30;;
30181;SDS011;16990;49.056;9.240;2023-01-01T12:13:21;8.05;;;2.70;;
